createdAt,value
2018-09-06T00:01:50.830Z,98969.83
2018-09-06T00:04:20.714Z,98965.91
2018-09-06T00:06:49.808Z,98971.11
2018-09-06T00:09:18.940Z,98965.72
2018-09-06T00:11:48.025Z,98978.34
2018-09-06T00:14:17.057Z,98983.50
2018-09-06T00:16:47.065Z,98979.30
2018-09-06T00:19:16.410Z,98980.64
2018-09-06T00:21:45.328Z,98975.44
2018-09-06T00:24:14.336Z,98966.22
2018-09-06T00:26:43.402Z,98969.58
2018-09-06T00:29:12.526Z,98971.20
2018-09-06T00:31:41.485Z,98965.84
2018-09-06T00:34:16.646Z,98967.66
2018-09-06T00:36:45.662Z,98969.17
2018-09-06T00:39:14.757Z,98974.34
2018-09-06T00:41:43.853Z,98965.50
2018-09-06T00:44:12.897Z,98964.87
2018-09-06T00:46:41.951Z,98964.16
2018-09-06T00:49:10.781Z,98960.70
2018-09-06T00:51:39.888Z,98960.70
2018-09-06T00:54:08.829Z,98957.78
2018-09-06T00:56:37.702Z,98959.21
2018-09-06T00:59:06.660Z,98959.73
2018-09-06T01:01:35.539Z,98962.05
2018-09-06T01:04:04.777Z,98962.57
2018-09-06T01:06:33.655Z,98966.09
2018-09-06T01:09:02.474Z,98959.92
2018-09-06T01:11:31.877Z,98955.22
2018-09-06T01:14:00.776Z,98950.52
2018-09-06T01:16:29.601Z,98953.94
2018-09-06T01:18:58.939Z,98959.48
2018-09-06T01:21:27.753Z,98955.78
2018-09-06T01:23:56.712Z,98952.60
2018-09-06T01:26:25.762Z,98958.64
2018-09-06T01:28:54.705Z,98962.84
2018-09-06T01:31:23.720Z,98962.38
2018-09-06T01:33:53.299Z,98956.33
2018-09-06T01:36:27.147Z,98955.99
2018-09-06T01:38:57.233Z,98953.16
2018-09-06T01:41:26.223Z,98953.50
2018-09-06T01:43:55.288Z,98944.59
2018-09-06T01:46:24.347Z,98941.57
2018-09-06T01:48:53.285Z,98950.97
2018-09-06T01:51:22.290Z,98944.28
2018-09-06T01:53:51.213Z,98946.27
2018-09-06T01:56:20.253Z,98949.30
2018-09-06T01:58:49.224Z,98945.95
2018-09-06T02:01:18.232Z,98938.23
2018-09-06T02:03:48.187Z,98946.95
2018-09-06T02:06:18.052Z,98940.23
2018-09-06T02:08:51.383Z,98945.25
2018-09-06T02:11:20.468Z,98947.87
2018-09-06T02:13:49.766Z,98950.89
2018-09-06T02:16:18.946Z,98950.30
2018-09-06T02:18:49.001Z,98952.47
2018-09-06T02:21:17.970Z,98944.33
2018-09-06T02:23:46.937Z,98947.70
2018-09-06T02:26:15.919Z,98933.53
2018-09-06T02:28:44.903Z,98943.26
2018-09-06T02:31:14.321Z,98938.94
2018-09-06T02:33:43.271Z,98932.49
2018-09-06T02:36:12.450Z,98935.91
2018-09-06T02:38:42.012Z,98939.25
2018-09-06T02:41:11.930Z,98939.59
2018-09-06T02:43:48.311Z,98932.38
2018-09-06T02:46:22.614Z,98934.56
2018-09-06T02:48:51.851Z,98929.81
2018-09-06T02:51:21.841Z,98937.33
2018-09-06T02:53:52.383Z,98929.11
2018-09-06T02:56:21.362Z,98926.04
2018-09-06T02:58:50.417Z,98928.17
2018-09-06T03:01:19.997Z,98922.76
2018-09-06T03:03:48.866Z,98919.40
2018-09-06T03:06:17.945Z,98922.55
2018-09-06T03:08:46.936Z,98918.16
2018-09-06T03:11:24.011Z,98933.40
2018-09-06T03:13:53.887Z,98926.70
2018-09-06T03:16:23.152Z,98931.85
2018-09-06T03:18:53.313Z,98939.83
2018-09-06T03:21:25.688Z,98940.98
2018-09-06T03:23:58.794Z,98933.77
2018-09-06T03:26:27.756Z,98932.27
2018-09-06T03:29:02.806Z,98933.27
2018-09-06T03:31:35.896Z,98929.74
2018-09-06T03:34:06.509Z,98932.23
2018-09-06T03:36:36.285Z,98933.36
2018-09-06T03:39:07.750Z,98936.03
2018-09-06T03:41:42.241Z,98937.00
2018-09-06T03:44:11.650Z,98942.20
2018-09-06T03:46:40.656Z,98944.08
2018-09-06T03:49:09.699Z,98943.23
2018-09-06T03:51:39.121Z,98952.45
2018-09-06T03:54:08.028Z,98954.16
2018-09-06T03:56:40.388Z,98953.85
2018-09-06T03:59:09.252Z,98961.89
2018-09-06T04:01:43.359Z,98953.85
2018-09-06T04:04:12.420Z,98964.56
2018-09-06T04:06:46.029Z,98962.73
2018-09-06T04:09:15.848Z,98960.20
2018-09-06T04:11:44.940Z,98967.24
2018-09-06T04:14:13.880Z,98972.95
2018-09-06T04:16:45.846Z,98969.45
2018-09-06T04:19:14.697Z,98970.36
2018-09-06T04:21:43.522Z,98975.41
2018-09-06T04:24:12.629Z,98979.11
2018-09-06T04:26:41.592Z,98977.17
2018-09-06T04:29:10.543Z,98978.20
2018-09-06T04:31:39.980Z,98982.27
2018-09-06T04:34:09.110Z,98977.31
2018-09-06T04:36:38.014Z,98976.23
2018-09-06T04:39:09.690Z,98972.78
2018-09-06T04:41:38.660Z,98978.38
2018-09-06T04:44:07.959Z,98975.98
2018-09-06T04:46:37.600Z,98977.00
2018-09-06T04:49:06.561Z,98985.95
2018-09-06T04:51:42.186Z,98986.52
2018-09-06T04:54:18.160Z,98988.44
2018-09-06T04:56:49.374Z,98989.91
2018-09-06T04:59:30.530Z,98982.91
2018-09-06T05:02:12.872Z,98991.70
2018-09-06T05:04:43.331Z,98994.89
2018-09-06T05:09:36.035Z,98994.28
2018-09-06T05:12:23.710Z,98998.46
2018-09-06T05:14:52.852Z,98997.81
2018-09-06T05:17:22.081Z,99000.66
2018-09-06T05:19:54.384Z,98992.11
2018-09-06T05:22:23.472Z,98997.53
2018-09-06T05:24:52.731Z,98997.23
2018-09-06T05:27:21.718Z,98997.58
2018-09-06T05:29:50.917Z,98997.23
2018-09-06T05:32:20.009Z,99003.96
2018-09-06T05:34:49.334Z,98997.59
2018-09-06T05:37:18.144Z,99003.66
2018-09-06T05:39:47.157Z,99001.35
2018-09-06T05:42:16.148Z,98999.21
2018-09-06T05:44:45.197Z,99000.93
2018-09-06T05:47:14.281Z,99000.59
2018-09-06T05:49:43.247Z,99006.81
2018-09-06T05:52:12.964Z,99010.03
2018-09-06T05:54:46.367Z,99007.18
2018-09-06T05:57:15.538Z,99012.39
2018-09-06T05:59:45.539Z,99006.52
2018-09-06T06:02:14.894Z,99017.30
2018-09-06T06:04:43.758Z,99002.48
2018-09-06T06:07:12.687Z,99002.84
2018-09-06T06:09:42.165Z,98996.83
2018-09-06T06:12:11.069Z,99005.05
2018-09-06T06:14:39.901Z,99010.48
2018-09-06T06:17:08.858Z,99009.51
2018-09-06T06:19:37.881Z,99019.09
2018-09-06T06:22:06.854Z,99023.31
2018-09-06T06:24:36.121Z,99018.11
2018-09-06T06:27:05.193Z,99020.80
2018-09-06T06:29:34.245Z,99018.61
2018-09-06T06:32:03.309Z,99018.10
2018-09-06T06:34:32.396Z,99015.59
2018-09-06T06:37:01.478Z,99011.55
2018-09-06T06:39:30.526Z,99019.77
2018-09-06T06:41:59.321Z,99022.28
2018-09-06T06:44:28.288Z,99020.76
2018-09-06T06:46:57.771Z,99023.97
2018-09-06T06:49:26.721Z,99028.00
2018-09-06T06:51:55.792Z,99022.94
2018-09-06T06:54:25.169Z,99022.30
2018-09-06T06:56:54.187Z,99022.77
2018-09-06T06:59:23.239Z,99020.39
2018-09-06T07:01:52.713Z,99014.35
2018-09-06T07:04:21.697Z,99025.79
2018-09-06T07:06:50.694Z,99019.75
2018-09-06T07:09:19.989Z,99019.05
2018-09-06T07:11:49.918Z,99026.43
2018-09-06T07:14:18.924Z,99030.09
2018-09-06T07:16:48.294Z,99029.08
2018-09-06T07:19:17.126Z,99024.98
2018-09-06T07:21:46.173Z,99020.07
2018-09-06T07:24:15.792Z,99021.02
2018-09-06T07:26:44.696Z,99017.09
2018-09-06T07:29:13.667Z,99017.89
2018-09-06T07:31:42.695Z,99011.88
2018-09-06T07:34:11.544Z,99013.01
2018-09-06T07:36:40.409Z,99013.11
2018-09-06T07:39:10.395Z,99017.98
2018-09-06T07:41:39.342Z,99015.89
2018-09-06T07:44:08.424Z,99029.20
2018-09-06T07:46:37.515Z,99024.33
2018-09-06T07:49:06.561Z,99019.43
2018-09-06T07:51:35.667Z,99022.09
2018-09-06T07:54:05.896Z,99015.86
2018-09-06T07:56:34.853Z,99013.98
2018-09-06T07:59:03.733Z,99018.00
2018-09-06T08:01:32.828Z,99013.70
2018-09-06T08:04:01.683Z,99024.44
2018-09-06T08:06:30.678Z,99016.98
2018-09-06T08:08:59.799Z,99011.59
2018-09-06T08:11:28.708Z,99006.00
2018-09-06T08:13:57.703Z,99007.88
2018-09-06T08:16:26.840Z,99018.23
2018-09-06T08:18:55.908Z,99015.34
2018-09-06T08:21:25.045Z,99012.55
2018-09-06T08:23:54.396Z,99012.98
2018-09-06T08:26:23.316Z,99008.45
2018-09-06T08:28:52.088Z,99017.87
2018-09-06T08:31:21.126Z,99010.50
2018-09-06T08:33:50.535Z,99019.26
2018-09-06T08:36:19.591Z,99010.66
2018-09-06T08:38:49.025Z,99018.66
2018-09-06T08:41:17.872Z,99015.14
2018-09-06T08:43:46.769Z,99012.02
2018-09-06T08:46:16.048Z,99009.74
2018-09-06T08:48:44.934Z,99006.66
2018-09-06T08:51:13.799Z,99005.88
2018-09-06T08:53:43.103Z,98997.56
2018-09-06T08:56:11.913Z,99005.78
2018-09-06T08:58:42.284Z,99001.25
2018-09-06T09:01:16.722Z,98999.23
2018-09-06T09:03:45.751Z,99002.01
2018-09-06T09:06:14.957Z,98993.44
2018-09-06T09:08:43.879Z,98993.31
2018-09-06T09:11:12.966Z,98990.75
2018-09-06T09:13:41.930Z,98986.67
2018-09-06T09:16:11.081Z,98991.68
2018-09-06T09:18:39.934Z,98989.23
2018-09-06T09:21:08.865Z,98989.77
2018-09-06T09:23:38.176Z,98989.74
2018-09-06T09:26:07.198Z,98983.45
2018-09-06T09:28:36.105Z,98984.33
2018-09-06T09:31:05.173Z,98975.67
2018-09-06T09:33:34.279Z,98972.28
2018-09-06T09:36:03.280Z,98974.98
2018-09-06T09:38:32.071Z,98968.06
2018-09-06T09:41:01.136Z,98963.58
2018-09-06T09:43:30.133Z,98958.77
2018-09-06T09:48:27.038Z,98946.45
2018-09-06T09:50:55.956Z,98943.41
2018-09-06T09:53:24.812Z,98950.58
2018-09-06T09:55:53.671Z,98947.91
2018-09-06T09:58:22.677Z,98940.49
2018-09-06T10:00:52.316Z,98938.20
2018-09-06T10:03:26.321Z,98935.93
2018-09-06T10:06:00.952Z,98943.41
2018-09-06T10:08:34.942Z,98948.81
2018-09-06T10:11:03.981Z,98950.97
2018-09-06T10:13:33.118Z,98939.65
2018-09-06T10:16:02.127Z,98946.11
2018-09-06T10:18:31.443Z,98945.91
2018-09-06T10:21:00.587Z,98939.22
2018-09-06T10:23:29.661Z,98935.58
2018-09-06T10:25:58.969Z,98931.52
2018-09-06T10:28:28.099Z,98936.84
2018-09-06T10:30:57.152Z,98935.33
2018-09-06T10:33:26.425Z,98930.83
2018-09-06T10:35:55.439Z,98927.44
2018-09-06T10:38:24.448Z,98923.04
2018-09-06T10:40:53.772Z,98916.17
2018-09-06T10:43:22.733Z,98922.47
2018-09-06T10:45:51.752Z,98918.74
2018-09-06T10:48:20.660Z,98915.72
2018-09-06T10:50:49.712Z,98916.67
2018-09-06T10:53:18.741Z,98909.45
2018-09-06T10:55:47.912Z,98908.21
2018-09-06T10:58:16.845Z,98905.19
2018-09-06T11:00:45.697Z,98910.81
2018-09-06T11:03:15.046Z,98901.48
2018-09-06T11:05:43.995Z,98906.39
2018-09-06T11:08:13.119Z,98905.98
2018-09-06T11:10:42.211Z,98892.19
2018-09-06T11:13:11.414Z,98904.24
2018-09-06T11:15:40.232Z,98896.50
2018-09-06T11:18:09.302Z,98895.13
2018-09-06T11:20:38.113Z,98893.89
2018-09-06T11:23:07.132Z,98889.59
2018-09-06T11:25:36.104Z,98891.28
2018-09-06T11:28:05.093Z,98889.69
2018-09-06T11:30:33.956Z,98896.80
2018-09-06T11:33:03.275Z,98887.42
2018-09-06T11:35:32.501Z,98885.63
2018-09-06T11:38:01.532Z,98895.31
2018-09-06T11:40:31.242Z,98887.85
2018-09-06T11:43:00.607Z,98885.95
2018-09-06T11:45:29.599Z,98886.58
2018-09-06T11:47:58.621Z,98878.48
2018-09-06T11:50:28.160Z,98877.20
2018-09-06T11:52:57.097Z,98876.67
2018-09-06T11:55:26.131Z,98875.03
2018-09-06T11:57:55.439Z,98869.59
2018-09-06T12:00:24.840Z,98864.81
2018-09-06T12:02:53.780Z,98858.02
2018-09-06T12:05:22.770Z,98853.95
2018-09-06T12:07:51.583Z,98859.14
2018-09-06T12:10:20.638Z,98851.06
2018-09-06T12:12:52.990Z,98847.42
2018-09-06T12:15:22.036Z,98846.55
2018-09-06T12:17:51.052Z,98850.02
2018-09-06T12:20:19.900Z,98845.64
2018-09-06T12:22:49.050Z,98847.14
2018-09-06T12:25:18.114Z,98842.45
2018-09-06T12:27:47.202Z,98838.14
2018-09-06T12:30:16.139Z,98841.31
2018-09-06T12:32:45.415Z,98840.84
2018-09-06T12:35:14.703Z,98832.84
2018-09-06T12:37:43.649Z,98845.13
2018-09-06T12:40:12.424Z,98837.41
2018-09-06T12:42:42.081Z,98835.81
2018-09-06T12:45:11.085Z,98837.84
2018-09-06T12:47:40.245Z,98831.89
2018-09-06T12:50:09.664Z,98833.16
2018-09-06T12:52:38.679Z,98834.75
2018-09-06T12:55:07.669Z,98833.63
2018-09-06T12:57:36.561Z,98839.74
2018-09-06T13:00:05.590Z,98833.38
2018-09-06T13:02:34.631Z,98833.40
2018-09-06T13:05:04.022Z,98830.46
2018-09-06T13:07:32.965Z,98831.17
2018-09-06T13:10:02.009Z,98826.94
2018-09-06T13:12:31.300Z,98833.86
2018-09-06T13:15:00.266Z,98834.78
2018-09-06T13:17:29.385Z,98831.06
2018-09-06T13:19:58.317Z,98819.37
2018-09-06T13:22:27.483Z,98817.61
2018-09-06T13:24:56.530Z,98816.34
2018-09-06T13:27:25.942Z,98818.44
2018-09-06T13:29:54.902Z,98814.77
2018-09-06T13:32:23.801Z,98817.61
2018-09-06T13:34:52.881Z,98819.49
2018-09-06T13:37:21.819Z,98813.53
2018-09-06T13:39:50.675Z,98815.85
2018-09-06T13:42:19.905Z,98808.10
2018-09-06T13:44:48.981Z,98808.50
2018-09-06T13:47:18.667Z,98808.27
2018-09-06T13:49:47.876Z,98799.36
2018-09-06T13:52:17.271Z,98808.81
2018-09-06T13:54:46.135Z,98803.70
2018-09-06T13:57:15.491Z,98796.02
2018-09-06T13:59:44.499Z,98796.07
2018-09-06T14:02:13.421Z,98789.99
2018-09-06T14:04:42.514Z,98802.38
2018-09-06T14:07:11.563Z,98804.10
2018-09-06T14:09:40.520Z,98802.01
2018-09-06T14:12:09.648Z,98800.47
2018-09-06T14:14:38.693Z,98797.53
2018-09-06T14:17:07.801Z,98798.97
2018-09-06T14:19:36.837Z,98794.63
2018-09-06T14:22:06.312Z,98794.84
2018-09-06T14:24:35.192Z,98798.83
2018-09-06T14:27:04.176Z,98788.48
2018-09-06T14:29:33.136Z,98779.59
2018-09-06T14:32:02.101Z,98783.75
2018-09-06T14:34:31.328Z,98778.91
2018-09-06T14:37:00.149Z,98780.68
2018-09-06T14:39:29.017Z,98775.36
2018-09-06T14:41:58.120Z,98769.94
2018-09-06T14:44:27.173Z,98768.83
2018-09-06T14:46:56.289Z,98774.47
2018-09-06T14:49:25.935Z,98771.45
2018-09-06T14:51:54.735Z,98773.52
2018-09-06T14:54:23.717Z,98771.30
2018-09-06T14:56:53.273Z,98768.53
2018-09-06T14:59:22.335Z,98765.73
2018-09-06T15:01:51.214Z,98770.50
2018-09-06T15:04:20.167Z,98766.76
2018-09-06T15:06:49.109Z,98767.89
2018-09-06T15:09:18.050Z,98766.34
2018-09-06T15:11:47.588Z,98771.55
2018-09-06T15:14:16.377Z,98770.44
2018-09-06T15:16:45.273Z,98757.46
2018-09-06T15:19:14.575Z,98763.15
2018-09-06T15:21:43.585Z,98760.45
2018-09-06T15:24:12.609Z,98763.29
2018-09-06T15:26:41.911Z,98762.54
2018-09-06T15:29:10.974Z,98767.03
2018-09-06T15:31:39.802Z,98771.86
2018-09-06T15:34:09.818Z,98772.69
2018-09-06T15:36:38.734Z,98771.02
2018-09-06T15:39:09.039Z,98776.69
2018-09-06T15:41:38.359Z,98774.41
2018-09-06T15:44:07.560Z,98783.31
2018-09-06T15:46:36.578Z,98778.89
2018-09-06T15:49:06.132Z,98774.10
2018-09-06T15:51:34.908Z,98782.13
2018-09-06T15:54:03.756Z,98792.91
2018-09-06T15:56:33.048Z,98792.00
2018-09-06T15:59:01.951Z,98792.02
2018-09-06T16:01:30.774Z,98798.31
2018-09-06T16:03:59.719Z,98798.01
2018-09-06T16:06:28.572Z,98796.23
2018-09-06T16:08:57.371Z,98804.59
2018-09-06T16:11:26.268Z,98793.30
2018-09-06T16:13:55.204Z,98796.41
2018-09-06T16:16:24.133Z,98799.33
2018-09-06T16:18:53.306Z,98806.08
2018-09-06T16:21:22.216Z,98805.11
2018-09-06T16:23:51.020Z,98814.47
2018-09-06T16:26:19.905Z,98812.45
2018-09-06T16:28:48.785Z,98813.01
2018-09-06T16:31:17.701Z,98814.16
2018-09-06T16:33:46.665Z,98820.09
2018-09-06T16:36:15.429Z,98818.06
2018-09-06T16:38:44.209Z,98822.34
2018-09-06T16:41:13.207Z,98826.03
2018-09-06T16:43:41.918Z,98821.69
2018-09-06T16:46:10.749Z,98827.69
2018-09-06T16:48:39.611Z,98826.13
2018-09-06T16:51:08.462Z,98829.05
2018-09-06T16:53:38.227Z,98830.94
2018-09-06T16:56:07.597Z,98830.23
2018-09-06T16:58:36.511Z,98835.22
2018-09-06T17:01:05.462Z,98833.30
2018-09-06T17:03:34.472Z,98836.89
2018-09-06T17:06:03.346Z,98832.08
2018-09-06T17:08:32.303Z,98838.88
2018-09-06T17:11:01.545Z,98836.32
2018-09-06T17:13:30.609Z,98844.86
2018-09-06T17:15:59.452Z,98842.91
2018-09-06T17:18:28.809Z,98844.41
2018-09-06T17:20:57.717Z,98845.08
2018-09-06T17:23:26.489Z,98849.59
2018-09-06T17:25:55.355Z,98854.39
2018-09-06T17:28:24.130Z,98851.75
2018-09-06T17:30:52.991Z,98861.59
2018-09-06T17:33:22.304Z,98869.95
2018-09-06T17:35:51.471Z,98876.35
2018-09-06T17:38:20.407Z,98870.11
2018-09-06T17:40:49.517Z,98875.75
2018-09-06T17:43:18.351Z,98881.47
2018-09-06T17:45:47.199Z,98870.80
2018-09-06T17:48:16.452Z,98870.80
2018-09-06T17:50:45.505Z,98881.41
2018-09-06T17:53:14.391Z,98877.58
2018-09-06T17:55:43.579Z,98885.84
2018-09-06T17:58:12.553Z,98880.95
2018-09-06T18:00:46.496Z,98883.34
2018-09-06T18:03:16.062Z,98882.52
2018-09-06T18:05:44.841Z,98896.30
2018-09-06T18:08:14.371Z,98896.06
2018-09-06T18:10:43.356Z,98894.02
2018-09-06T18:13:12.303Z,98898.11
2018-09-06T18:15:42.035Z,98902.23
2018-09-06T18:18:10.898Z,98900.70
2018-09-06T18:20:39.726Z,98899.16
2018-09-06T18:23:09.004Z,98898.19
2018-09-06T18:25:37.865Z,98895.30
2018-09-06T18:28:07.149Z,98901.31
2018-09-06T18:30:36.140Z,98910.86
2018-09-06T18:33:05.042Z,98905.20
2018-09-06T18:35:33.902Z,98907.75
2018-09-06T18:38:03.272Z,98909.95
2018-09-06T18:40:32.125Z,98911.81
2018-09-06T18:43:01.112Z,98917.06
2018-09-06T18:45:30.333Z,98917.06
2018-09-06T18:47:59.301Z,98920.05
2018-09-06T18:50:28.234Z,98924.19
2018-09-06T18:52:57.732Z,98928.51
2018-09-06T18:55:26.701Z,98930.05
2018-09-06T18:57:55.569Z,98938.36
2018-09-06T19:00:24.336Z,98937.75
2018-09-06T19:02:53.232Z,98943.86
2018-09-06T19:05:22.011Z,98936.94
2018-09-06T19:07:51.549Z,98944.58
2018-09-06T19:10:20.315Z,98943.95
2018-09-06T19:12:49.313Z,98944.61
2018-09-06T19:15:18.617Z,98943.11
2018-09-06T19:17:47.813Z,98945.92
2018-09-06T19:20:16.884Z,98934.97
2018-09-06T19:22:46.116Z,98933.48
2018-09-06T19:25:14.929Z,98933.80
2018-09-06T19:27:43.895Z,98933.69
2018-09-06T19:30:12.933Z,98934.34
2018-09-06T19:32:41.807Z,98941.80
2018-09-06T19:35:11.409Z,98940.63
2018-09-06T19:37:44.974Z,98944.33
2018-09-06T19:40:17.581Z,98937.59
2018-09-06T19:42:50.532Z,98939.98
2018-09-06T19:45:23.189Z,98935.99
2018-09-06T19:47:52.262Z,98934.27
2018-09-06T19:50:26.892Z,98938.15
2018-09-06T19:52:56.518Z,98936.31
2018-09-06T19:55:25.342Z,98941.71
2018-09-06T19:57:54.327Z,98939.38
2018-09-06T20:00:23.270Z,98928.63
2018-09-06T20:02:52.407Z,98934.87
2018-09-06T20:05:21.583Z,98931.67
2018-09-06T20:07:50.913Z,98930.34
2018-09-06T20:10:20.019Z,98932.52
2018-09-06T20:12:49.921Z,98935.39
2018-09-06T20:15:18.998Z,98933.52
2018-09-06T20:17:48.145Z,98939.09
2018-09-06T20:20:17.018Z,98945.47
2018-09-06T20:22:47.858Z,98941.59
2018-09-06T20:25:20.976Z,98938.91
2018-09-06T20:27:52.114Z,98949.68
2018-09-06T20:30:25.806Z,98949.17
2018-09-06T20:32:59.040Z,98944.80
2018-09-06T20:35:28.193Z,98944.80
2018-09-06T20:38:01.369Z,98945.12
2018-09-06T20:40:30.213Z,98940.44
2018-09-06T20:42:59.407Z,98946.12
2018-09-06T20:45:29.733Z,98948.16
2018-09-06T20:47:58.739Z,98950.67
2018-09-06T20:50:27.717Z,98951.19
2018-09-06T20:52:56.610Z,98941.25
2018-09-06T20:55:25.411Z,98947.83
2018-09-06T20:57:55.412Z,98944.77
2018-09-06T21:36:25.112Z,98949.75
2018-09-06T21:39:00.002Z,98951.42
2018-09-06T21:41:29.004Z,98955.95
2018-09-06T21:43:57.910Z,98954.45
2018-09-06T21:46:27.158Z,98953.77
2018-09-06T21:48:56.130Z,98948.56
2018-09-06T21:51:25.468Z,98945.91
2018-09-06T21:53:54.525Z,98944.55
2018-09-06T21:56:23.749Z,98945.39
2018-09-06T21:58:53.787Z,98937.16
2018-09-06T22:01:23.552Z,98944.39
2018-09-06T22:03:57.680Z,98942.20
2018-09-06T22:06:26.833Z,98935.66
2018-09-06T22:08:57.922Z,98944.03
2018-09-06T22:11:27.163Z,98937.17
2018-09-06T22:13:56.665Z,98943.19
2018-09-06T22:16:25.925Z,98937.14
2018-09-06T22:18:56.492Z,98938.49
2018-09-06T22:21:25.964Z,98936.98
2018-09-06T22:23:54.923Z,98942.02
2018-09-06T22:26:24.549Z,98936.31
2018-09-06T22:28:56.286Z,98940.65
2018-09-06T22:31:29.105Z,98937.30
2018-09-06T22:33:59.117Z,98934.77
2018-09-06T22:36:28.764Z,98936.95
2018-09-06T22:38:57.928Z,98934.94
2018-09-06T22:41:26.916Z,98933.23
2018-09-06T22:43:55.841Z,98930.72
2018-09-06T22:46:25.691Z,98933.70
2018-09-06T22:48:54.675Z,98934.55
2018-09-06T22:51:23.643Z,98932.53
2018-09-06T22:53:53.003Z,98934.41
2018-09-06T22:56:22.160Z,98927.19
2018-09-06T22:58:51.418Z,98920.30
2018-09-06T23:01:20.855Z,98924.36
2018-09-06T23:03:53.244Z,98923.86
2018-09-06T23:06:23.267Z,98918.16
2018-09-06T23:08:52.408Z,98917.98
2018-09-06T23:11:28.438Z,98919.16
2018-09-06T23:14:26.557Z,98921.00
2018-09-06T23:19:37.422Z,98916.97
2018-09-06T23:22:26.421Z,98925.90
2018-09-06T23:25:03.975Z,98923.22
2018-09-06T23:27:33.106Z,98920.53
2018-09-06T23:30:02.235Z,98916.50
2018-09-06T23:32:31.467Z,98919.52
2018-09-06T23:35:01.557Z,98915.29
2018-09-06T23:37:30.742Z,98921.03
2018-09-06T23:39:59.989Z,98912.13
2018-09-06T23:42:29.273Z,98909.10
2018-09-06T23:44:58.368Z,98911.45
2018-09-06T23:47:27.378Z,98912.80
2018-09-06T23:49:56.766Z,98914.81
2018-09-06T23:52:25.687Z,98925.06
2018-09-06T23:54:54.446Z,98917.84
2018-09-06T23:57:24.031Z,98913.98
2018-09-06T23:59:53.041Z,98917.47
